Time;durP1;ratioP1;P1;durP2;ratioP2;P2;SDS_P1;SDS_P2;PMS_P1;PMS_P2;Temp;Humidity;BMP_temperature;BMP_pressure;BME280_temperature;BME280_humidity;BME280_pressure;Samples;Min_cycle;Max_cycle;Signal;HPM_P1;HPM_P2
2023/12/01 00:02:10;;;;;;;;;;;;;;;5.72;97.72;94907.47;5113910;28;1072;-63
2023/12/01 00:04:36;;;;;;;;;;;;;;;5.78;97.95;94900.78;5113963;28;1980;-63
2023/12/01 00:07:03;;;;;;;;;;;;;;;5.80;97.65;94897.00;5114209;28;1044;-63
2023/12/01 00:09:29;;;;;;;;;;;;;;;5.78;97.84;94900.78;5095878;28;973;-62
2023/12/01 00:11:55;;;;;;;;;;;;;;;5.76;98.38;94910.69;5114050;28;1071;-63
2023/12/01 00:14:22;;;;;;;;;;;;;;;5.70;98.82;94901.47;5113759;28;965;-63
2023/12/01 00:16:48;;;;;;;;;;;;;;;5.67;99.03;94915.84;5113775;28;1060;-62
2023/12/01 00:19:14;;;;;;;;;;;;;;;5.84;98.16;94905.50;5113969;28;984;-63
2023/12/01 00:21:40;;;;;;;;;;;;;;;5.87;97.59;94908.72;5113777;28;1029;-63
2023/12/01 00:24:06;;;;;;;;;;;;;;;5.80;98.31;94899.63;5113718;28;1194;-63
2023/12/01 00:26:32;;;;;;;;;;;;;;;5.86;98.15;94900.91;5113612;28;1992;-62
2023/12/01 00:28:58;;;;;;;;;;;;;;;5.95;98.28;94896.59;5113733;28;973;-62
2023/12/01 00:31:24;;;;;;;;;;;;;;;6.09;97.25;94908.63;5113513;28;1119;-63
2023/12/01 00:33:51;;;;;;;;;;;;;;;6.07;97.74;94906.13;5114018;28;992;-62
2023/12/01 00:36:17;;;;;;;;;;;;;;;6.05;97.27;94906.28;5113493;28;981;-62
2023/12/01 00:38:43;;;;;;;;;;;;;;;6.31;98.24;94889.75;5113466;28;1043;-63
2023/12/01 00:41:09;;;;;;;;;;;;;;;6.86;97.83;94881.13;5113685;28;1055;-62
2023/12/01 00:43:36;;;;;;;;;;;;;;;7.68;93.92;94897.25;5113532;28;1104;-62
2023/12/01 00:46:03;;;;;;;;;;;;;;;8.16;91.00;94910.22;5113704;28;2000;-62
2023/12/01 00:48:30;;;;;;;;;;;;;;;8.55;89.16;94915.25;5113420;28;1036;-59
2023/12/01 00:50:56;;;;;;;;;;;;;;;8.35;87.36;94919.91;5113438;28;1025;-62
2023/12/01 00:53:22;;;;;;;;;;;;;;;7.79;87.70;94928.97;5113526;28;980;-62
2023/12/01 00:55:49;;;;;;;;;;;;;;;7.42;90.11;94924.56;5113491;28;1279;-62
2023/12/01 00:58:15;;;;;;;;;;;;;;;6.98;91.72;94929.63;5113387;28;1235;-62
2023/12/01 01:00:41;;;;;;;;;;;;;;;6.92;92.66;94927.53;5113369;28;1000;-62
2023/12/01 01:03:07;;;;;;;;;;;;;;;6.77;92.78;94917.38;5095192;28;1041;-62
2023/12/01 01:05:33;;;;;;;;;;;;;;;6.69;93.34;94921.72;5113465;28;1981;-62
2023/12/01 01:07:59;;;;;;;;;;;;;;;6.63;94.55;94915.16;5113556;28;972;-63
2023/12/01 01:10:25;;;;;;;;;;;;;;;6.62;95.10;94926.75;5113472;28;1048;-63
2023/12/01 01:12:51;;;;;;;;;;;;;;;6.59;95.83;94916.44;5113427;28;1130;-62
2023/12/01 01:15:17;;;;;;;;;;;;;;;6.55;96.18;94923.03;5113311;28;1015;-63
2023/12/01 01:17:43;;;;;;;;;;;;;;;6.69;96.33;94932.34;5113370;28;926;-62
2023/12/01 01:20:10;;;;;;;;;;;;;;;6.69;95.82;94922.56;5113568;28;1033;-62
2023/12/01 01:22:39;;;;;;;;;;;;;;;6.65;96.34;94926.47;5113286;28;1044;-62
2023/12/01 01:25:06;;;;;;;;;;;;;;;6.64;96.80;94908.88;5112999;28;1980;-62
2023/12/01 01:27:32;;;;;;;;;;;;;;;6.78;95.85;94912.91;5113206;28;976;-62
2023/12/01 01:29:58;;;;;;;;;;;;;;;6.76;95.67;94915.69;5095414;28;1016;-62
2023/12/01 01:32:24;;;;;;;;;;;;;;;6.71;95.67;94912.63;5095247;28;1036;-62
2023/12/01 01:34:50;;;;;;;;;;;;;;;6.78;96.02;94899.63;5113377;28;960;-63
2023/12/01 01:37:16;;;;;;;;;;;;;;;6.92;94.97;94908.94;5113094;28;1079;-62
2023/12/01 01:39:42;;;;;;;;;;;;;;;7.00;94.66;94903.72;5113214;28;981;-63
2023/12/01 01:42:08;;;;;;;;;;;;;;;6.82;95.94;94901.00;5113154;28;1052;-62
2023/12/01 01:44:35;;;;;;;;;;;;;;;6.86;97.65;94885.59;5113447;28;973;-62
2023/12/01 01:47:01;;;;;;;;;;;;;;;7.14;97.08;94892.63;5113231;28;1977;-63
2023/12/01 01:49:27;;;;;;;;;;;;;;;7.66;96.47;94886.75;5114886;28;968;-63
2023/12/01 01:51:54;;;;;;;;;;;;;;;8.24;94.04;94882.00;5116662;28;1252;-62
2023/12/01 01:54:23;;;;;;;;;;;;;;;8.52;92.24;94880.09;5116482;28;1563;-63
2023/12/01 01:56:50;;;;;;;;;;;;;;;8.77;90.43;94863.28;5116596;28;1040;-63
2023/12/01 01:59:20;;;;;;;;;;;;;;;8.88;89.96;94861.31;5116443;28;1036;-62
2023/12/01 02:01:46;;;;;;;;;;;;;;;8.91;90.39;94853.03;5116648;28;1048;-63
2023/12/01 02:04:12;;;;;;;;;;;;;;;9.08;89.40;94844.09;5116576;28;990;-62
2023/12/01 02:06:39;;;;;;;;;;;;;;;9.10;89.19;94847.44;5116478;28;1910;-61
2023/12/01 02:09:06;;;;;;;;;;;;;;;9.30;88.69;94847.22;5116394;28;1029;-62
2023/12/01 02:11:32;;;;;;;;;;;;;;;9.38;88.60;94857.91;5116238;28;992;-63
2023/12/01 02:14:02;;;;;;;;;;;;;;;9.47;87.48;94856.13;5116532;28;1268;-62
2023/12/01 02:16:28;;;;;;;;;;;;;;;9.43;87.69;94834.25;5116316;28;958;-62
2023/12/01 02:18:54;;;;;;;;;;;;;;;9.48;88.31;94853.28;5116397;28;984;-62
2023/12/01 02:21:23;;;;;;;;;;;;;;;9.14;87.68;94854.16;5116162;28;1068;-62
2023/12/01 02:23:49;;;;;;;;;;;;;;;8.74;88.70;94862.75;5115939;28;1119;-62
2023/12/01 02:26:15;;;;;;;;;;;;;;;8.51;89.57;94860.59;5115853;28;1914;-62
2023/12/01 02:28:41;;;;;;;;;;;;;;;8.42;90.37;94858.84;5116233;28;964;-62
2023/12/01 02:31:07;;;;;;;;;;;;;;;8.18;92.30;94852.31;5116161;28;1011;-62
2023/12/01 02:33:33;;;;;;;;;;;;;;;8.13;91.71;94859.09;5115825;28;1088;-62
2023/12/01 02:35:59;;;;;;;;;;;;;;;7.91;92.74;94860.38;5115953;28;984;-62
2023/12/01 02:38:25;;;;;;;;;;;;;;;7.88;92.73;94864.19;5115664;28;1045;-62
2023/12/01 02:40:51;;;;;;;;;;;;;;;7.85;92.68;94869.00;5115734;28;972;-62
2023/12/01 02:43:18;;;;;;;;;;;;;;;7.81;93.23;94871.09;5115902;28;977;-61
2023/12/01 02:45:44;;;;;;;;;;;;;;;7.86;92.79;94858.19;5115793;28;1909;-60
2023/12/01 02:48:10;;;;;;;;;;;;;;;7.80;92.69;94851.66;5115522;28;1084;-61
2023/12/01 02:50:37;;;;;;;;;;;;;;;7.71;93.49;94849.88;5115412;28;1016;-61
2023/12/01 02:53:06;;;;;;;;;;;;;;;7.77;94.06;94848.44;5115421;28;980;-61
2023/12/01 02:55:32;;;;;;;;;;;;;;;7.71;94.38;94844.56;5097211;28;1606;-62
2023/12/01 02:57:58;;;;;;;;;;;;;;;7.64;94.77;94856.78;5115441;28;1040;-62
2023/12/01 03:00:24;;;;;;;;;;;;;;;7.70;94.70;94844.72;5115337;28;1035;-62
2023/12/01 03:02:51;;;;;;;;;;;;;;;7.69;94.18;94857.19;5115470;28;1024;-62
2023/12/01 03:05:17;;;;;;;;;;;;;;;7.52;94.46;94850.03;5115235;28;1914;-62
2023/12/01 03:07:43;;;;;;;;;;;;;;;7.57;95.45;94869.03;5115232;28;1049;-62
2023/12/01 03:10:10;;;;;;;;;;;;;;;7.47;94.78;94853.13;5114997;28;1024;-62
2023/12/01 03:12:36;;;;;;;;;;;;;;;7.73;93.29;94873.69;5115305;28;936;-63
2023/12/01 03:15:04;;;;;;;;;;;;;;;7.86;92.80;94879.50;5115214;28;1048;-64
2023/12/01 03:17:31;;;;;;;;;;;;;;;7.92;92.31;94878.88;5096954;28;977;-62
2023/12/01 03:19:57;;;;;;;;;;;;;;;8.02;91.02;94868.16;5115058;28;1004;-61
2023/12/01 03:22:23;;;;;;;;;;;;;;;8.07;91.87;94865.03;5114828;28;1103;-63
2023/12/01 03:24:50;;;;;;;;;;;;;;;8.19;90.92;94854.00;5114571;28;1985;-61
2023/12/01 03:27:16;;;;;;;;;;;;;;;8.20;91.29;94855.66;5115021;28;992;-60
2023/12/01 03:29:42;;;;;;;;;;;;;;;8.25;91.40;94859.69;5114766;28;1028;-61
2023/12/01 03:32:08;;;;;;;;;;;;;;;8.27;91.88;94839.94;5114932;28;1000;-61
2023/12/01 03:34:34;;;;;;;;;;;;;;;8.30;91.96;94844.09;5114751;28;1199;-60
2023/12/01 03:37:00;;;;;;;;;;;;;;;8.25;92.29;94833.06;5096651;28;992;-61
2023/12/01 03:39:26;;;;;;;;;;;;;;;8.22;93.55;94836.88;5114502;28;1043;-60
2023/12/01 03:41:52;;;;;;;;;;;;;;;8.29;94.62;94837.94;5114782;28;1063;-60
2023/12/01 03:44:18;;;;;;;;;;;;;;;8.73;94.17;94827.28;5114444;28;1036;-61
2023/12/01 03:46:44;;;;;;;;;;;;;;;9.23;92.09;94835.50;5114608;28;1913;-61
2023/12/01 03:49:10;;;;;;;;;;;;;;;9.57;89.70;94828.28;5114525;28;1065;-62
2023/12/01 03:51:36;;;;;;;;;;;;;;;9.65;89.46;94821.31;5114436;28;993;-63
2023/12/01 03:54:02;;;;;;;;;;;;;;;9.80;88.68;94811.66;5114243;28;1532;-62
2023/12/01 03:56:29;;;;;;;;;;;;;;;9.96;87.85;94811.69;5114473;28;971;-61
2023/12/01 03:58:55;;;;;;;;;;;;;;;10.10;85.68;94825.38;5114222;28;1036;-61
2023/12/01 04:01:21;;;;;;;;;;;;;;;9.21;87.38;94816.16;5114088;28;1079;-61
2023/12/01 04:03:47;;;;;;;;;;;;;;;8.71;90.20;94815.94;5114294;28;1023;-63
2023/12/01 04:06:13;;;;;;;;;;;;;;;8.51;91.72;94825.97;5113986;28;1914;-64
2023/12/01 04:08:39;;;;;;;;;;;;;;;8.16;93.58;94818.84;5114161;28;981;-64
2023/12/01 04:11:08;;;;;;;;;;;;;;;7.96;94.56;94827.00;5113768;28;1052;-63
2023/12/01 04:13:35;;;;;;;;;;;;;;;7.76;95.47;94820.19;5114062;28;993;-64
2023/12/01 04:16:01;;;;;;;;;;;;;;;7.76;95.22;94828.16;5114160;28;995;-63
2023/12/01 04:18:30;;;;;;;;;;;;;;;7.68;95.42;94812.94;5113978;28;965;-60
2023/12/01 04:20:57;;;;;;;;;;;;;;;7.44;96.26;94810.88;5113918;28;1028;-62
2023/12/01 04:23:23;;;;;;;;;;;;;;;7.39;97.00;94824.59;5113581;28;1088;-63
2023/12/01 04:25:50;;;;;;;;;;;;;;;7.55;97.14;94815.13;5114014;28;1996;-61
2023/12/01 04:28:16;;;;;;;;;;;;;;;7.60;97.06;94821.66;5113760;28;1016;-61
2023/12/01 04:30:42;;;;;;;;;;;;;;;7.71;96.58;94817.97;5114005;28;1055;-61
2023/12/01 04:33:08;;;;;;;;;;;;;;;7.68;96.91;94815.59;5113864;28;968;-63
2023/12/01 04:35:35;;;;;;;;;;;;;;;7.66;96.84;94798.94;5113683;28;1144;-63
2023/12/01 04:38:04;;;;;;;;;;;;;;;7.58;97.61;94810.34;5113638;28;969;-63
2023/12/01 04:40:30;;;;;;;;;;;;;;;7.51;98.28;94806.63;5113786;28;1058;-63
2023/12/01 04:42:58;;;;;;;;;;;;;;;7.43;98.79;94806.53;5113651;28;1065;-61
2023/12/01 04:45:25;;;;;;;;;;;;;;;7.44;98.38;94805.56;5113637;28;1905;-60
2023/12/01 04:47:51;;;;;;;;;;;;;;;7.41;98.35;94806.69;5113704;28;1056;-62
2023/12/01 04:50:24;;;;;;;;;;;;;;;7.60;98.28;94808.38;5113354;28;1111;-63
2023/12/01 04:52:54;;;;;;;;;;;;;;;7.65;98.08;94796.47;5113463;28;1020;-61
2023/12/01 04:55:20;;;;;;;;;;;;;;;7.68;98.18;94781.00;5113390;28;1627;-61
2023/12/01 04:57:47;;;;;;;;;;;;;;;7.74;98.39;94776.88;5113653;28;962;-62
2023/12/01 05:00:25;;;;;;;;;;;;;;;7.80;97.74;94779.78;5095397;28;977;-61
2023/12/01 05:02:52;;;;;;;;;;;;;;;7.91;97.24;94791.19;5113493;28;1001;-61
2023/12/01 05:05:20;;;;;;;;;;;;;;;7.78;97.71;94775.63;5113534;28;1994;-61
2023/12/01 05:07:49;;;;;;;;;;;;;;;7.80;97.76;94773.63;5113376;28;1020;-60
2023/12/01 05:10:19;;;;;;;;;;;;;;;7.69;98.47;94780.03;5113485;28;981;-61
2023/12/01 05:12:49;;;;;;;;;;;;;;;7.81;98.21;94767.31;5113462;28;989;-60
2023/12/01 05:15:20;;;;;;;;;;;;;;;7.79;97.61;94770.13;5113184;28;1021;-60
2023/12/01 05:17:47;;;;;;;;;;;;;;;7.74;98.50;94768.91;5113325;28;1016;-60
2023/12/01 05:20:16;;;;;;;;;;;;;;;7.77;98.20;94769.44;5113413;28;1024;-60
2023/12/01 05:22:42;;;;;;;;;;;;;;;7.73;98.56;94777.91;5113397;28;983;-60
2023/12/01 05:25:13;;;;;;;;;;;;;;;7.60;99.45;94778.28;5116124;28;1942;-61
2023/12/01 05:27:40;;;;;;;;;;;;;;;7.66;99.35;94777.66;5117219;28;961;-61
2023/12/01 05:30:07;;;;;;;;;;;;;;;7.78;98.19;94773.78;5117015;28;1138;-61
2023/12/01 05:32:33;;;;;;;;;;;;;;;7.91;97.96;94756.56;5117166;28;1059;-60
2023/12/01 05:34:59;;;;;;;;;;;;;;;7.75;98.75;94759.94;5117200;28;1067;-60
2023/12/01 05:37:25;;;;;;;;;;;;;;;7.79;98.80;94763.97;5116969;28;1016;-62
2023/12/01 05:39:51;;;;;;;;;;;;;;;7.84;98.67;94767.03;5098995;28;974;-61
2023/12/01 05:42:17;;;;;;;;;;;;;;;7.98;97.75;94779.75;5116936;28;973;-61
2023/12/01 05:44:43;;;;;;;;;;;;;;;8.07;96.91;94772.69;5116765;28;1044;-61
2023/12/01 05:47:09;;;;;;;;;;;;;;;8.10;97.48;94776.84;5116954;28;1976;-61
2023/12/01 05:49:35;;;;;;;;;;;;;;;7.97;98.41;94769.28;5116889;28;977;-61
2023/12/01 05:52:01;;;;;;;;;;;;;;;7.99;98.53;94785.94;5116750;28;1032;-60
2023/12/01 05:54:27;;;;;;;;;;;;;;;7.94;99.23;94789.03;5116411;28;1323;-62
2023/12/01 05:56:55;;;;;;;;;;;;;;;7.95;99.60;94766.78;5116560;28;902;-59
2023/12/01 05:59:21;;;;;;;;;;;;;;;7.96;99.47;94772.94;5116406;28;1049;-59
2023/12/01 06:01:47;;;;;;;;;;;;;;;8.05;99.28;94787.16;5116434;28;1048;-60
2023/12/01 06:04:13;;;;;;;;;;;;;;;8.21;98.32;94780.13;5116705;28;1043;-57
2023/12/01 06:06:40;;;;;;;;;;;;;;;8.21;98.42;94776.59;5116387;28;1906;-59
2023/12/01 06:09:15;;;;;;;;;;;;;;;8.21;98.80;94782.78;5098482;28;1044;-62
2023/12/01 06:11:42;;;;;;;;;;;;;;;8.37;98.26;94781.22;5098378;28;1073;-62
2023/12/01 06:14:08;;;;;;;;;;;;;;;8.38;98.21;94778.41;5116202;28;1061;-63
2023/12/01 06:16:34;;;;;;;;;;;;;;;8.30;98.18;94773.00;5116125;28;932;-61
2023/12/01 06:19:00;;;;;;;;;;;;;;;8.47;97.59;94770.50;5116377;28;1007;-61
2023/12/01 06:21:26;;;;;;;;;;;;;;;8.62;96.85;94779.56;5116139;28;969;-60
2023/12/01 06:23:52;;;;;;;;;;;;;;;8.78;95.55;94774.34;5115883;28;1607;-60
2023/12/01 06:26:18;;;;;;;;;;;;;;;8.82;95.25;94772.19;5115858;28;1926;-62
2023/12/01 06:28:44;;;;;;;;;;;;;;;8.79;95.70;94775.97;5115987;28;1036;-63
2023/12/01 06:31:10;;;;;;;;;;;;;;;8.82;96.23;94768.66;5115859;28;1041;-63
2023/12/01 06:33:37;;;;;;;;;;;;;;;8.72;96.75;94774.94;5115911;28;1111;-63
2023/12/01 06:36:03;;;;;;;;;;;;;;;8.67;97.13;94773.75;5115518;28;973;-62
2023/12/01 06:38:29;;;;;;;;;;;;;;;8.74;96.89;94770.28;5115760;28;1131;-63
2023/12/01 06:40:55;;;;;;;;;;;;;;;8.67;97.47;94781.75;5115839;28;1068;-62
2023/12/01 06:43:21;;;;;;;;;;;;;;;8.64;98.01;94779.41;5115574;28;1075;-62
2023/12/01 06:45:47;;;;;;;;;;;;;;;8.64;97.63;94785.56;5115588;28;1909;-62
2023/12/01 06:48:13;;;;;;;;;;;;;;;8.66;97.87;94786.25;5115693;28;1117;-62
2023/12/01 06:50:39;;;;;;;;;;;;;;;8.58;99.12;94784.38;5115694;28;968;-62
2023/12/01 06:53:06;;;;;;;;;;;;;;;8.50;100.00;94786.13;5115612;28;1012;-59
2023/12/01 06:55:32;;;;;;;;;;;;;;;8.34;100.00;94794.84;5115304;28;1612;-60
2023/12/01 06:57:58;;;;;;;;;;;;;;;8.40;100.00;94804.88;5298082;22;3650;-61
2023/12/01 07:02:56;;;;;;;;;;;;;;;8.42;100.00;94802.09;5094751;28;1033;-60
2023/12/01 07:05:22;;;;;;;;;;;;;;;8.38;100.00;94799.72;5094989;28;1894;-60
2023/12/01 07:07:48;;;;;;;;;;;;;;;8.42;100.00;94805.56;5076968;28;1119;-60
2023/12/01 07:10:15;;;;;;;;;;;;;;;8.64;100.00;94814.88;5094788;28;1036;-60
2023/12/01 07:12:41;;;;;;;;;;;;;;;8.80;98.94;94808.81;5094841;28;965;-59
2023/12/01 07:15:11;;;;;;;;;;;;;;;8.72;100.00;94827.44;5095072;28;1020;-59
2023/12/01 07:17:38;;;;;;;;;;;;;;;8.86;99.07;94842.00;5095199;28;1045;-60
2023/12/01 07:20:13;;;;;;;;;;;;;;;8.93;98.59;94825.19;5094692;28;1116;-60
2023/12/01 07:22:40;;;;;;;;;;;;;;;9.13;97.09;94830.31;5094818;28;1015;-60
2023/12/01 07:25:10;;;;;;;;;;;;;;;9.15;97.24;94839.00;5094513;28;1995;-60
2023/12/01 07:27:37;;;;;;;;;;;;;;;9.09;97.90;94819.13;5094546;28;1021;-60
2023/12/01 07:30:03;;;;;;;;;;;;;;;9.01;98.55;94839.56;5094512;28;1021;-60
2023/12/01 07:32:29;;;;;;;;;;;;;;;9.04;98.99;94821.44;5094520;28;965;-60
2023/12/01 07:34:55;;;;;;;;;;;;;;;9.13;98.77;94841.81;5094372;28;1099;-60
2023/12/01 07:37:21;;;;;;;;;;;;;;;9.26;98.26;94836.03;5094323;28;1126;-62
2023/12/01 07:39:47;;;;;;;;;;;;;;;9.10;99.41;94819.94;5094250;28;1016;-61
2023/12/01 07:42:13;;;;;;;;;;;;;;;9.19;99.35;94821.66;5094135;28;1330;-60
2023/12/01 07:44:39;;;;;;;;;;;;;;;9.15;100.00;94802.47;5094185;28;1028;-61
2023/12/01 07:47:08;;;;;;;;;;;;;;;9.19;100.00;94819.81;5093460;28;1999;-59
2023/12/01 07:50:20;;;;;;;;;;;;;;;9.33;100.00;94817.53;5051262;28;911;-59
2023/12/01 07:52:47;;;;;;;;;;;;;;;9.37;99.71;94832.22;5051622;28;1088;-59
2023/12/01 07:55:13;;;;;;;;;;;;;;;9.32;99.62;94835.38;5053697;28;1560;-63
2023/12/01 07:57:40;;;;;;;;;;;;;;;9.41;99.94;94816.72;5046619;28;1994;-62
2023/12/01 08:00:14;;;;;;;;;;;;;;;9.37;99.87;94829.56;5050984;28;1204;-60
2023/12/01 08:02:43;;;;;;;;;;;;;;;9.40;100.00;94842.59;5050508;28;1128;-60
2023/12/01 08:05:13;;;;;;;;;;;;;;;9.40;100.00;94839.09;5051174;28;2155;-60
2023/12/01 08:07:40;;;;;;;;;;;;;;;9.37;100.00;94858.91;5051415;28;1044;-60
2023/12/01 08:10:07;;;;;;;;;;;;;;;9.56;99.90;94868.47;5051344;28;1088;-60
2023/12/01 08:12:33;;;;;;;;;;;;;;;9.55;99.32;94880.16;5051072;28;1100;-60
2023/12/01 08:15:00;;;;;;;;;;;;;;;9.47;100.00;94888.16;5051218;28;961;-60
2023/12/01 08:17:26;;;;;;;;;;;;;;;9.57;100.00;94891.50;5046526;28;1303;-60
2023/12/01 08:19:52;;;;;;;;;;;;;;;9.58;100.00;94893.19;5055170;28;1045;-60
2023/12/01 08:22:18;;;;;;;;;;;;;;;9.69;99.90;94890.19;5073510;28;1148;-60
2023/12/01 08:24:46;;;;;;;;;;;;;;;9.80;99.57;94897.09;5075347;28;1049;-60
2023/12/01 08:27:12;;;;;;;;;;;;;;;9.85;99.13;94900.13;5093511;28;1906;-61
2023/12/01 08:29:38;;;;;;;;;;;;;;;9.87;98.96;94889.28;5093636;28;965;-61
2023/12/01 08:32:04;;;;;;;;;;;;;;;9.81;100.00;94882.75;5093369;28;1000;-58
2023/12/01 08:34:30;;;;;;;;;;;;;;;9.80;100.00;94878.41;5093598;28;1060;-58
2023/12/01 08:36:56;;;;;;;;;;;;;;;9.88;99.95;94873.06;5093482;28;1116;-57
2023/12/01 08:39:23;;;;;;;;;;;;;;;9.96;99.11;94873.09;5075650;28;1051;-58
2023/12/01 08:41:53;;;;;;;;;;;;;;;10.01;99.17;94856.56;5093495;28;1095;-58
2023/12/01 08:44:19;;;;;;;;;;;;;;;10.10;98.33;94825.38;5093420;28;1056;-58
2023/12/01 08:46:45;;;;;;;;;;;;;;;10.08;98.99;94830.88;5093277;28;1910;-58
2023/12/01 08:49:11;;;;;;;;;;;;;;;10.12;98.54;94842.06;5093239;28;1052;-58
2023/12/01 08:51:37;;;;;;;;;;;;;;;10.14;99.27;94848.91;5093505;28;966;-60
2023/12/01 08:54:04;;;;;;;;;;;;;;;10.20;99.36;94850.09;5093327;28;1695;-59
2023/12/01 08:56:33;;;;;;;;;;;;;;;10.26;99.31;94854.78;5093217;28;962;-60
2023/12/01 08:58:59;;;;;;;;;;;;;;;10.29;98.92;94870.47;5095970;28;1187;-60
2023/12/01 09:01:26;;;;;;;;;;;;;;;10.26;99.68;94859.28;5097157;28;1060;-59
2023/12/01 09:03:52;;;;;;;;;;;;;;;10.33;99.17;94860.31;5097546;28;988;-60
2023/12/01 09:06:18;;;;;;;;;;;;;;;10.44;99.38;94851.13;5097266;28;1910;-59
2023/12/01 09:08:44;;;;;;;;;;;;;;;10.37;100.00;94847.47;5097336;28;1052;-59
2023/12/01 09:11:10;;;;;;;;;;;;;;;10.43;99.04;94844.09;5097223;28;1119;-60
2023/12/01 09:13:36;;;;;;;;;;;;;;;10.45;99.46;94852.78;5097098;28;1087;-59
2023/12/01 09:16:02;;;;;;;;;;;;;;;10.46;100.00;94857.16;5097041;28;958;-60
2023/12/01 09:18:29;;;;;;;;;;;;;;;10.58;100.00;94853.13;5097190;28;1067;-60
2023/12/01 09:20:55;;;;;;;;;;;;;;;10.72;99.65;94859.66;5097207;28;973;-60
2023/12/01 09:23:21;;;;;;;;;;;;;;;10.87;98.94;94838.38;5096673;28;1612;-59
2023/12/01 09:25:48;;;;;;;;;;;;;;;10.96;97.68;94845.38;5077669;28;1995;-60
2023/12/01 09:28:14;;;;;;;;;;;;;;;10.94;98.17;94847.38;5078902;28;1000;-59
2023/12/01 09:30:40;;;;;;;;;;;;;;;10.85;99.27;94845.72;5096772;28;1088;-59
2023/12/01 09:33:06;;;;;;;;;;;;;;;10.98;99.36;94823.81;5096538;28;1103;-60
2023/12/01 09:35:32;;;;;;;;;;;;;;;11.10;98.68;94814.41;5096892;28;1008;-60
2023/12/01 09:37:58;;;;;;;;;;;;;;;11.08;98.60;94827.97;5096672;28;1075;-60
2023/12/01 09:40:24;;;;;;;;;;;;;;;10.96;100.00;94807.09;5096487;28;1021;-60
2023/12/01 09:42:51;;;;;;;;;;;;;;;11.04;99.00;94793.69;5096565;28;1060;-60
2023/12/01 09:45:21;;;;;;;;;;;;;;;11.03;99.23;94795.53;5096330;28;1906;-60
2023/12/01 09:47:51;;;;;;;;;;;;;;;11.03;98.45;94816.09;5096524;28;1096;-60
2023/12/01 09:50:18;;;;;;;;;;;;;;;11.06;99.54;94805.91;5096823;28;1058;-57
2023/12/01 09:52:44;;;;;;;;;;;;;;;11.06;99.16;94826.44;5096519;28;1064;-58
2023/12/01 09:55:10;;;;;;;;;;;;;;;11.11;98.77;94853.53;5096404;28;1617;-57
2023/12/01 09:57:37;;;;;;;;;;;;;;;11.23;98.26;94846.81;5096333;28;1037;-58
2023/12/01 10:00:10;;;;;;;;;;;;;;;11.22;98.04;94844.31;5095877;28;1484;-58
2023/12/01 10:02:38;;;;;;;;;;;;;;;11.16;98.09;94861.06;5096358;28;1132;-58
2023/12/01 10:05:04;;;;;;;;;;;;;;;11.16;97.52;94875.25;5096180;28;1906;-58
2023/12/01 10:07:30;;;;;;;;;;;;;;;11.22;96.92;94863.88;5096157;28;974;-59
2023/12/01 10:09:56;;;;;;;;;;;;;;;11.32;95.98;94863.66;5095140;28;1040;-58
2023/12/01 10:12:23;;;;;;;;;;;;;;;11.41;95.09;94856.44;5095841;28;1019;-57
2023/12/01 10:14:49;;;;;;;;;;;;;;;11.44;96.00;94859.63;5096203;28;970;-58
2023/12/01 10:17:15;;;;;;;;;;;;;;;11.45;95.83;94849.72;5096057;28;1020;-57
2023/12/01 10:19:48;;;;;;;;;;;;;;;11.44;96.07;94843.56;5096054;28;962;-60
2023/12/01 10:22:19;;;;;;;;;;;;;;;11.55;95.94;94855.69;5095861;28;944;-59
2023/12/01 10:24:54;;;;;;;;;;;;;;;11.64;95.58;94846.63;5095826;28;1145;-60
2023/12/01 10:27:20;;;;;;;;;;;;;;;11.71;95.53;94842.25;5095801;28;1997;-60
2023/12/01 10:29:47;;;;;;;;;;;;;;;11.87;94.73;94843.97;5095683;28;1092;-60
2023/12/01 10:32:14;;;;;;;;;;;;;;;12.05;94.29;94834.88;5095744;28;1040;-61
2023/12/01 10:34:46;;;;;;;;;;;;;;;12.20;93.96;94822.38;5095763;28;1040;-62
2023/12/01 10:37:13;;;;;;;;;;;;;;;12.37;92.18;94815.03;5095510;28;1092;-60
2023/12/01 10:39:39;;;;;;;;;;;;;;;12.47;91.36;94822.84;5095511;28;972;-60
2023/12/01 10:42:07;;;;;;;;;;;;;;;12.53;92.40;94813.25;5095488;28;1155;-60
2023/12/01 10:44:35;;;;;;;;;;;;;;;12.62;92.43;94814.84;5095307;28;1026;-59
2023/12/01 10:47:02;;;;;;;;;;;;;;;12.68;93.01;94809.56;5095433;28;1914;-62
2023/12/01 10:49:28;;;;;;;;;;;;;;;12.72;93.95;94804.66;5095210;28;1025;-60
2023/12/01 10:51:55;;;;;;;;;;;;;;;12.80;93.96;94807.25;5095344;28;1057;-60
2023/12/01 10:54:25;;;;;;;;;;;;;;;12.88;94.60;94809.03;5095025;28;1525;-60
2023/12/01 10:57:06;;;;;;;;;;;;;;;12.87;95.22;94805.50;5095323;28;1021;-60
2023/12/01 10:59:33;;;;;;;;;;;;;;;12.90;94.30;94809.69;5094833;28;1180;-60
2023/12/01 11:02:00;;;;;;;;;;;;;;;12.94;93.83;94808.31;5095130;28;966;-60
2023/12/01 11:04:27;;;;;;;;;;;;;;;13.04;93.25;94798.13;5094902;28;969;-60
2023/12/01 11:07:01;;;;;;;;;;;;;;;13.09;92.73;94790.34;5094740;28;1996;-60
2023/12/01 11:09:39;;;;;;;;;;;;;;;13.07;92.45;94795.09;5077118;28;961;-60
2023/12/01 11:12:13;;;;;;;;;;;;;;;13.07;93.42;94805.81;5095019;28;970;-60
2023/12/01 11:14:40;;;;;;;;;;;;;;;13.12;94.63;94801.75;5076838;28;992;-60
2023/12/01 11:17:06;;;;;;;;;;;;;;;13.09;93.37;94790.34;5094739;28;1048;-60
2023/12/01 11:19:41;;;;;;;;;;;;;;;13.05;93.60;94783.69;5094590;28;1106;-60
2023/12/01 11:22:27;;;;;;;;;;;;;;;13.04;92.48;94783.88;5094795;28;1048;-59
2023/12/01 11:24:54;;;;;;;;;;;;;;;13.07;92.26;94784.34;5094670;28;970;-60
2023/12/01 11:27:20;;;;;;;;;;;;;;;13.12;92.57;94783.78;5094407;28;1909;-60
2023/12/01 11:30:12;;;;;;;;;;;;;;;13.12;93.01;94796.38;5094372;28;1021;-60
2023/12/01 11:32:38;;;;;;;;;;;;;;;13.00;94.80;94785.28;5094420;28;1025;-60
2023/12/01 11:35:09;;;;;;;;;;;;;;;13.07;92.59;94787.03;5094503;28;1037;-60
2023/12/01 11:37:54;;;;;;;;;;;;;;;13.08;92.96;94783.31;5094418;28;1053;-60
2023/12/01 11:40:21;;;;;;;;;;;;;;;13.20;91.88;94780.16;5094129;28;1001;-60
2023/12/01 11:42:47;;;;;;;;;;;;;;;13.17;92.71;94776.00;5094371;28;1084;-60
2023/12/01 11:45:15;;;;;;;;;;;;;;;13.21;91.80;94779.16;5094193;28;2003;-60
2023/12/01 11:47:41;;;;;;;;;;;;;;;13.17;93.68;94791.28;5094246;28;1023;-60
2023/12/01 11:50:12;;;;;;;;;;;;;;;13.13;95.88;94779.22;5094205;28;1036;-60
2023/12/01 11:52:38;;;;;;;;;;;;;;;13.06;95.21;94796.09;5094027;28;1188;-60
2023/12/01 11:55:14;;;;;;;;;;;;;;;13.06;94.49;94785.34;5072676;28;1324;-60
2023/12/01 11:57:43;;;;;;;;;;;;;;;13.13;93.57;94792.66;5073920;28;1012;-60
2023/12/01 12:00:09;;;;;;;;;;;;;;;13.15;94.50;94783.41;5073456;28;1120;-60
2023/12/01 12:02:35;;;;;;;;;;;;;;;13.11;92.71;94789.31;5073664;28;1442;-60
2023/12/01 12:05:05;;;;;;;;;;;;;;;13.16;91.68;94777.00;5073511;28;1992;-60
2023/12/01 12:07:31;;;;;;;;;;;;;;;13.27;91.29;94771.16;5073439;28;1032;-60
2023/12/01 12:09:57;;;;;;;;;;;;;;;13.43;90.92;94775.56;5073749;28;1044;-60
2023/12/01 12:12:23;;;;;;;;;;;;;;;13.55;89.26;94772.38;5073543;28;1041;-60
2023/12/01 12:14:52;;;;;;;;;;;;;;;13.64;87.24;94774.75;5073525;28;953;-59
2023/12/01 12:17:21;;;;;;;;;;;;;;;13.72;89.46;94762.25;5073443;28;995;-60
2023/12/01 12:19:47;;;;;;;;;;;;;;;13.75;87.53;94745.72;5073308;28;1104;-59
2023/12/01 12:22:14;;;;;;;;;;;;;;;13.86;88.41;94751.41;5073531;28;1000;-60
2023/12/01 12:24:42;;;;;;;;;;;;;;;13.89;87.13;94744.00;5080814;28;1289;-60
2023/12/01 12:27:08;;;;;;;;;;;;;;;13.75;87.86;94741.19;5093512;28;1991;-59
2023/12/01 12:29:34;;;;;;;;;;;;;;;13.70;88.46;94750.81;5093340;28;1029;-60
2023/12/01 12:32:01;;;;;;;;;;;;;;;13.68;88.77;94756.41;5093331;28;1004;-60
2023/12/01 12:34:27;;;;;;;;;;;;;;;13.67;89.66;94757.41;5092888;28;1032;-62
2023/12/01 12:36:53;;;;;;;;;;;;;;;13.51;89.35;94750.44;5093348;28;1017;-59
2023/12/01 12:39:23;;;;;;;;;;;;;;;13.63;89.34;94740.84;5093505;28;1045;-59
2023/12/01 12:41:49;;;;;;;;;;;;;;;13.77;89.31;94749.06;5075528;28;1073;-59
2023/12/01 12:44:16;;;;;;;;;;;;;;;13.84;88.86;94744.59;5093220;28;1174;-59
2023/12/01 12:46:42;;;;;;;;;;;;;;;13.85;86.38;94738.19;5093311;28;1981;-58
2023/12/01 12:49:08;;;;;;;;;;;;;;;13.83;86.59;94724.13;5093294;28;1036;-58
2023/12/01 12:51:35;;;;;;;;;;;;;;;13.85;86.03;94719.38;5093397;28;965;-59
2023/12/01 12:54:01;;;;;;;;;;;;;;;13.91;84.83;94712.41;5093425;28;1354;-59
2023/12/01 12:56:27;;;;;;;;;;;;;;;14.08;85.09;94713.81;5093134;28;1096;-59
2023/12/01 12:58:57;;;;;;;;;;;;;;;14.15;85.36;94719.22;5093116;28;1231;-59
2023/12/01 13:01:24;;;;;;;;;;;;;;;14.22;84.69;94726.31;5093026;28;1044;-59
2023/12/01 13:03:50;;;;;;;;;;;;;;;14.37;82.79;94728.94;5093146;28;1028;-59
2023/12/01 13:06:16;;;;;;;;;;;;;;;14.51;79.99;94719.09;5093219;28;1918;-60
2023/12/01 13:08:43;;;;;;;;;;;;;;;14.62;80.57;94729.34;5093348;28;1025;-61